Time;durP1;ratioP1;P1;durP2;ratioP2;P2;SDS_P1;SDS_P2;PMS_P1;PMS_P2;Temp;Humidity;BMP_temperature;BMP_pressure;BME280_temperature;BME280_humidity;BME280_pressure;Samples;Min_cycle;Max_cycle;Signal;HPM_P1;HPM_P2
2024/01/23 00:02:32;;;;;;;7.87;1.93;;;;;;;5.33;100.00;100214.89;4868744;59;1138618;-78
2024/01/23 00:07:37;;;;;;;14.33;2.67;;;;;;;5.27;100.00;100216.94;4939267;57;1137639;-78
2024/01/23 00:12:43;;;;;;;18.10;3.90;;;;;;;5.21;100.00;100215.14;4981960;56;1138853;-77
2024/01/23 00:17:48;;;;;;;14.60;3.27;;;;;;;5.18;100.00;100221.44;4989459;57;1138808;-77
2024/01/23 00:22:55;;;;;;;18.73;3.55;;;;;;;5.14;100.00;100236.97;4985892;57;1138636;-77
2024/01/23 00:28:01;;;;;;;14.63;3.43;;;;;;;5.10;100.00;100227.59;5012612;57;1138721;-78
2024/01/23 00:33:07;;;;;;;11.23;3.33;;;;;;;5.08;100.00;100237.78;4967642;57;1138552;-77
2024/01/23 00:38:12;;;;;;;10.03;2.70;;;;;;;5.06;100.00;100254.06;4927565;58;1138951;-77
2024/01/23 00:43:18;;;;;;;9.75;2.42;;;;;;;5.04;100.00;100258.58;4951419;58;1138885;-77
2024/01/23 00:48:23;;;;;;;7.33;1.97;;;;;;;5.02;100.00;100261.75;4955410;57;1136751;-77
2024/01/23 00:53:29;;;;;;;8.50;2.40;;;;;;;5.00;100.00;100261.84;4952262;58;1136972;-77
2024/01/23 00:58:34;;;;;;;13.13;3.93;;;;;;;5.02;100.00;100272.23;4975151;58;1136869;-78
2024/01/23 01:03:40;;;;;;;13.47;2.80;;;;;;;5.05;100.00;100266.79;4955245;57;1138647;-77
2024/01/23 01:08:46;;;;;;;16.13;3.10;;;;;;;5.07;100.00;100268.39;4986350;57;1138615;-77
2024/01/23 01:13:51;;;;;;;16.42;3.86;;;;;;;5.08;100.00;100283.66;4996252;56;1139163;-78
2024/01/23 01:18:58;;;;;;;17.85;4.58;;;;;;;5.07;100.00;100280.66;4998680;57;1138765;-77
2024/01/23 01:24:04;;;;;;;16.90;2.90;;;;;;;5.04;100.00;100276.93;4988663;57;1138698;-77
2024/01/23 01:29:10;;;;;;;17.83;3.90;;;;;;;5.03;100.00;100270.84;4945687;57;1139676;-77
2024/01/23 01:34:16;;;;;;;8.97;2.53;;;;;;;5.01;100.00;100279.72;4947098;57;1138836;-77
2024/01/23 01:39:22;;;;;;;16.77;3.93;;;;;;;4.95;100.00;100274.36;4868723;59;1136653;-78
2024/01/23 01:44:29;;;;;;;13.67;2.87;;;;;;;4.90;100.00;100284.25;4935586;57;1138970;-77
2024/01/23 01:49:35;;;;;;;12.43;3.00;;;;;;;4.85;100.00;100285.85;4966852;58;1139130;-77
2024/01/23 01:54:43;;;;;;;15.80;3.37;;;;;;;4.82;100.00;100277.31;4947662;58;1139160;-77
2024/01/23 01:59:51;;;;;;;11.40;3.05;;;;;;;4.82;100.00;100276.01;4954754;57;1138814;-77
2024/01/23 02:04:56;;;;;;;152.35;44.13;;;;;;;4.79;100.00;100269.62;4958533;57;1138973;-77
2024/01/23 02:10:02;;;;;;;16.63;4.43;;;;;;;4.76;100.00;100285.05;5004306;56;1142844;-77
2024/01/23 02:15:08;;;;;;;12.53;2.43;;;;;;;4.74;100.00;100293.92;4995650;57;1138646;-77
2024/01/23 02:20:14;;;;;;;11.90;2.77;;;;;;;4.70;100.00;100274.10;4974382;57;1138633;-77
2024/01/23 02:25:19;;;;;;;5.43;2.40;;;;;;;4.69;100.00;100289.44;4941736;57;1138864;-77
2024/01/23 02:30:25;;;;;;;13.37;2.50;;;;;;;4.68;100.00;100289.90;4891915;57;1136600;-77
2024/01/23 02:35:34;;;;;;;12.70;2.70;;;;;;;4.65;100.00;100282.21;4846137;58;1138695;-77
2024/01/23 02:40:40;;;;;;;16.87;3.03;;;;;;;4.66;100.00;100290.91;4879850;58;1138572;-77
2024/01/23 02:45:45;;;;;;;13.13;2.87;;;;;;;4.64;100.00;100289.69;4927861;58;1138709;-77
2024/01/23 02:50:51;;;;;;;12.95;2.62;;;;;;;4.63;100.00;100292.39;4920744;58;1138405;-77
2024/01/23 02:55:57;;;;;;;9.00;2.12;;;;;;;4.64;100.00;100300.16;4798894;58;1139258;-78
2024/01/23 03:01:02;;;;;;;15.83;2.95;;;;;;;4.63;100.00;100311.57;4771135;59;1136471;-77
2024/01/23 03:06:08;;;;;;;38.70;6.80;;;;;;;4.66;100.00;100311.87;4959631;57;1139209;-77
2024/01/23 03:11:14;;;;;;;40.63;6.30;;;;;;;4.68;100.00;100306.08;4992409;57;1138806;-77
2024/01/23 03:16:19;;;;;;;273.30;59.10;;;;;;;4.67;100.00;100320.11;5006677;57;1138332;-77
2024/01/23 03:21:25;;;;;;;58.40;7.80;;;;;;;4.64;100.00;100322.43;4955647;57;1142679;-78
2024/01/23 03:26:31;;;;;;;20.97;3.93;;;;;;;4.60;100.00;100313.89;4927849;57;1138655;-77
2024/01/23 03:31:36;;;;;;;27.83;3.97;;;;;;;4.59;100.00;100321.83;4895250;59;1138788;-77
2024/01/23 03:36:44;;;;;;;28.37;4.77;;;;;;;4.55;100.00;100325.11;4870110;59;1139459;-77
2024/01/23 03:41:49;;;;;;;41.97;8.33;;;;;;;4.52;100.00;100317.89;4872997;59;1138977;-77
2024/01/23 03:46:56;;;;;;;24.25;4.50;;;;;;;4.50;100.00;100327.59;4883996;59;1138730;-77
2024/01/23 03:52:02;;;;;;;27.50;5.70;;;;;;;4.50;100.00;100324.98;4964695;58;1138670;-76
2024/01/23 03:57:07;;;;;;;34.33;6.03;;;;;;;4.49;100.00;100321.52;4944269;58;1138617;-77
2024/01/23 04:02:13;;;;;;;14.30;3.50;;;;;;;4.53;100.00;100327.44;4952048;58;1139383;-77
2024/01/23 04:07:20;;;;;;;16.60;4.50;;;;;;;4.53;100.00;100321.73;4988738;57;1138842;-77
2024/01/23 04:12:26;;;;;;;14.55;3.35;;;;;;;4.50;100.00;100324.52;4970060;57;1139557;-77
2024/01/23 04:17:31;;;;;;;27.42;4.95;;;;;;;4.48;100.00;100325.52;4933682;57;1148652;-77
2024/01/23 04:22:38;;;;;;;53.90;11.93;;;;;;;4.45;100.00;100344.02;4890740;58;1186316;-77
2024/01/23 04:27:44;;;;;;;40.87;7.13;;;;;;;4.45;100.00;100337.47;4878711;59;1176779;-77
2024/01/23 04:32:49;;;;;;;19.23;3.63;;;;;;;4.42;100.00;100339.82;4856746;58;1138655;-77
2024/01/23 04:37:55;;;;;;;13.45;3.20;;;;;;;4.41;100.00;100338.13;4872560;59;1139369;-77
2024/01/23 04:43:00;;;;;;;11.28;2.55;;;;;;;4.38;100.00;100338.29;4950480;57;1138832;-77
2024/01/23 04:48:06;;;;;;;9.53;2.00;;;;;;;4.36;100.00;100341.45;4955043;57;1138663;-77
2024/01/23 04:53:12;;;;;;;10.77;2.63;;;;;;;4.33;100.00;100361.72;4951313;58;1136490;-77
2024/01/23 04:58:17;;;;;;;7.33;2.47;;;;;;;4.28;100.00;100368.50;4967898;58;1138991;-77
2024/01/23 05:03:23;;;;;;;12.43;3.23;;;;;;;4.23;100.00;100377.93;4953905;58;1174918;-77
2024/01/23 05:08:29;;;;;;;7.77;1.80;;;;;;;4.20;100.00;100385.94;4970114;57;1242536;-77
2024/01/23 05:13:34;;;;;;;7.73;2.17;;;;;;;4.14;100.00;100393.27;4973691;57;1136346;-77
2024/01/23 05:18:40;;;;;;;9.23;1.77;;;;;;;4.13;100.00;100404.66;4935206;57;1225974;-77
2024/01/23 05:23:46;;;;;;;59.97;14.53;;;;;;;4.12;100.00;100418.70;4866318;57;1240410;-77
2024/01/23 05:28:54;;;;;;;14.73;3.55;;;;;;;4.13;100.00;100424.28;4967680;56;1247492;-77
2024/01/23 05:34:00;;;;;;;7.03;2.40;;;;;;;4.12;100.00;100429.16;5022318;57;1233455;-77
2024/01/23 05:39:05;;;;;;;7.12;2.27;;;;;;;4.07;100.00;100443.79;5002810;56;1235895;-77
2024/01/23 05:44:11;;;;;;;10.60;2.53;;;;;;;4.04;100.00;100443.94;4922016;57;1252390;-77
2024/01/23 05:49:16;;;;;;;5.77;2.20;;;;;;;4.00;100.00;100450.71;4943209;57;1177213;-77
2024/01/23 05:54:22;;;;;;;6.20;1.57;;;;;;;3.97;100.00;100457.44;4894894;57;1255419;-77
2024/01/23 05:59:27;;;;;;;14.07;2.73;;;;;;;3.94;100.00;100453.66;4952546;57;1244967;-76
2024/01/23 06:04:33;;;;;;;12.83;2.43;;;;;;;3.88;100.00;100463.97;4989423;57;1241321;-77
2024/01/23 06:09:39;;;;;;;7.03;2.07;;;;;;;3.87;100.00;100474.05;4930679;57;1163859;-77
2024/01/23 06:14:44;;;;;;;12.33;3.00;;;;;;;3.87;100.00;100484.05;4900736;57;1136846;-76
2024/01/23 06:19:50;;;;;;;6.03;1.47;;;;;;;3.91;100.00;100483.91;4924023;57;1249513;-77
2024/01/23 06:25:07;;;;;;;3.22;1.92;;;;;;;3.89;100.00;100479.59;4946114;56;1137048;-76
2024/01/23 06:30:13;;;;;;;6.60;2.03;;;;;;;3.91;100.00;100486.52;4923331;57;1246859;-75
2024/01/23 06:35:19;;;;;;;12.77;2.60;;;;;;;3.91;100.00;100497.83;4938350;57;1136653;-74
2024/01/23 06:40:25;;;;;;;7.50;1.80;;;;;;;3.91;100.00;100502.21;4958832;57;1139072;-75
2024/01/23 06:45:30;;;;;;;8.30;1.85;;;;;;;3.92;100.00;100502.14;4926596;57;1136693;-76
2024/01/23 06:50:36;;;;;;;12.83;2.30;;;;;;;3.93;100.00;100516.92;4934021;57;1136777;-74
2024/01/23 06:55:41;;;;;;;11.80;3.70;;;;;;;3.95;100.00;100524.23;4963920;57;1138719;-75
2024/01/23 07:00:47;;;;;;;9.57;2.37;;;;;;;3.97;100.00;100530.23;4869672;57;1138518;-75
2024/01/23 07:05:52;;;;;;;10.00;2.13;;;;;;;3.97;100.00;100532.86;4945269;57;1136864;-74
2024/01/23 07:10:58;;;;;;;10.40;1.83;;;;;;;3.98;100.00;100542.83;4864547;58;1242771;-75
2024/01/23 07:16:04;;;;;;;9.63;2.57;;;;;;;4.00;100.00;100557.54;4867765;58;1138699;-74
2024/01/23 07:21:09;;;;;;;14.50;3.37;;;;;;;4.01;100.00;100557.92;4908278;57;1160169;-75
2024/01/23 07:26:15;;;;;;;11.60;2.97;;;;;;;4.03;100.00;100571.78;4925995;58;1138758;-75
2024/01/23 07:31:21;;;;;;;15.20;2.67;;;;;;;4.01;100.00;100572.31;4811046;59;1139031;-76
2024/01/23 07:36:26;;;;;;;15.70;2.67;;;;;;;4.03;100.00;100590.56;4933923;57;1138740;-76
2024/01/23 07:41:32;;;;;;;14.33;2.80;;;;;;;4.06;100.00;100600.42;4919334;56;1138695;-75
2024/01/23 07:46:38;;;;;;;9.23;2.40;;;;;;;4.09;100.00;100615.98;4967294;56;1138926;-75
2024/01/23 07:51:48;;;;;;;10.67;2.10;;;;;;;4.12;100.00;100620.22;4918909;57;1136725;-75
2024/01/23 07:56:53;;;;;;;7.20;2.20;;;;;;;4.16;100.00;100630.91;4929665;57;1138949;-75
2024/01/23 08:01:59;;;;;;;9.70;3.77;;;;;;;4.21;100.00;100628.91;4885377;57;1136909;-75
2024/01/23 08:07:05;;;;;;;14.85;1.70;;;;;;;4.26;100.00;100643.95;4913818;57;1136862;-75
2024/01/23 08:12:11;;;;;;;14.50;3.30;;;;;;;4.31;100.00;100644.55;4847026;58;1138629;-76
2024/01/23 08:17:18;;;;;;;7.37;2.87;;;;;;;4.35;100.00;100641.31;4909450;56;1138802;-76
2024/01/23 08:22:23;;;;;;;7.72;2.05;;;;;;;4.38;100.00;100656.42;4921030;58;1136701;-76
2024/01/23 08:27:29;;;;;;;15.83;2.57;;;;;;;4.43;100.00;100658.81;4895468;57;1136871;-76
2024/01/23 08:32:34;;;;;;;9.17;2.60;;;;;;;4.46;100.00;100656.88;4822441;58;1138817;-74
2024/01/23 08:37:40;;;;;;;4.37;1.67;;;;;;;4.58;100.00;100673.77;4889716;58;1136554;-75
2024/01/23 08:42:46;;;;;;;16.27;3.60;;;;;;;4.67;100.00;100665.42;4930789;57;1136627;-75
2024/01/23 08:47:52;;;;;;;30.03;8.17;;;;;;;4.76;100.00;100662.78;4944370;56;1138539;-77
2024/01/23 08:52:57;;;;;;;11.08;2.98;;;;;;;4.90;100.00;100669.47;4883681;57;1138998;-77
2024/01/23 08:58:03;;;;;;;11.38;3.58;;;;;;;4.99;100.00;100677.34;4940087;57;1138903;-75
2024/01/23 09:03:11;;;;;;;5.63;2.13;;;;;;;5.09;100.00;100679.86;4913052;57;1138933;-77
2024/01/23 09:08:16;;;;;;;14.33;2.97;;;;;;;5.17;100.00;100685.56;4921648;57;1136693;-75
2024/01/23 09:13:22;;;;;;;10.40;2.50;;;;;;;5.18;100.00;100687.26;4942150;58;1138541;-75
2024/01/23 09:18:29;;;;;;;12.37;2.87;;;;;;;5.20;100.00;100691.92;4922645;57;1139098;-76
2024/01/23 09:23:37;;;;;;;6.63;2.20;;;;;;;5.21;100.00;100700.17;4924578;57;1138481;-77
2024/01/23 09:28:43;;;;;;;9.80;2.23;;;;;;;5.23;100.00;100710.12;4917838;57;1136515;-75
2024/01/23 09:33:48;;;;;;;13.77;2.47;;;;;;;5.27;100.00;100711.67;4928555;57;1136635;-78
2024/01/23 09:38:54;;;;;;;11.65;3.37;;;;;;;5.26;100.00;100716.06;4936343;57;1138754;-77
2024/01/23 09:44:00;;;;;;;34.00;11.80;;;;;;;5.32;100.00;100707.50;4938395;57;1138722;-75
2024/01/23 09:49:06;;;;;;;27.37;5.10;;;;;;;5.39;100.00;100721.97;4929539;57;1141077;-76
2024/01/23 09:54:12;;;;;;;11.70;3.90;;;;;;;5.43;100.00;100718.27;4908339;57;1138830;-76
2024/01/23 09:59:17;;;;;;;13.07;3.63;;;;;;;5.46;100.00;100728.14;4891834;57;1138468;-75
2024/01/23 10:04:23;;;;;;;11.00;2.50;;;;;;;5.51;100.00;100736.59;4791500;58;1138884;-78
2024/01/23 10:09:29;;;;;;;17.57;4.47;;;;;;;5.62;100.00;100738.66;4929860;57;1138720;-78
2024/01/23 10:14:35;;;;;;;11.27;2.60;;;;;;;5.64;100.00;100724.53;4811180;59;1138772;-76
2024/01/23 10:19:40;;;;;;;13.00;3.37;;;;;;;5.62;100.00;100726.86;4815485;58;1138606;-78
2024/01/23 10:24:46;;;;;;;14.37;3.67;;;;;;;5.63;100.00;100734.64;4699839;59;1138681;-75
2024/01/23 10:29:51;;;;;;;17.37;3.60;;;;;;;5.71;100.00;100750.42;4968230;56;1139258;-75
2024/01/23 10:34:57;;;;;;;15.13;3.17;;;;;;;5.68;100.00;100748.80;4972236;57;1141593;-73
2024/01/23 10:40:05;;;;;;;9.15;2.35;;;;;;;5.63;100.00;100756.09;4906291;57;1138758;-76
2024/01/23 10:45:15;;;;;;;19.43;6.47;;;;;;;5.54;100.00;100760.05;4957423;57;1136956;-76
2024/01/23 10:50:23;;;;;;;32.90;7.87;;;;;;;5.50;100.00;100765.55;4978987;57;1138652;-75
2024/01/23 10:55:31;;;;;;;9.30;1.97;;;;;;;5.47;100.00;100757.84;4914256;58;1138847;-76
2024/01/23 11:00:38;;;;;;;13.13;4.93;;;;;;;5.40;100.00;100755.14;4976330;56;1136707;-76
2024/01/23 11:05:49;;;;;;;17.93;3.97;;;;;;;5.36;100.00;100757.06;4988355;56;1138548;-76
2024/01/23 11:11:29;;;;;;;21.87;5.15;;;;;;;5.33;100.00;100752.47;4961450;56;1138381;-77
2024/01/23 11:16:35;;;;;;;25.23;5.80;;;;;;;5.33;100.00;100748.07;4905077;56;1138535;-77
2024/01/23 11:21:40;;;;;;;14.03;3.17;;;;;;;5.36;100.00;100750.52;4929425;57;1139052;-76
2024/01/23 11:26:51;;;;;;;11.50;3.20;;;;;;;5.40;100.00;100742.88;4956228;56;1138686;-76
2024/01/23 11:31:58;;;;;;;22.33;6.50;;;;;;;5.45;100.00;100755.75;4941992;57;1164900;-77
2024/01/23 11:37:03;;;;;;;144.07;38.13;;;;;;;5.48;100.00;100749.89;4903550;58;1138687;-76
2024/01/23 11:42:13;;;;;;;22.65;5.10;;;;;;;5.48;100.00;100765.63;4838081;58;1143182;-77
2024/01/23 11:47:19;;;;;;;20.63;4.97;;;;;;;5.48;100.00;100766.09;4940121;57;1138581;-76
2024/01/23 11:52:25;;;;;;;19.70;5.17;;;;;;;5.44;100.00;100775.89;4907973;58;1138586;-77
2024/01/23 11:57:33;;;;;;;10.27;3.20;;;;;;;5.42;100.00;100776.89;4934580;58;1138833;-76
2024/01/23 12:02:39;;;;;;;14.43;3.93;;;;;;;5.40;100.00;100759.08;4921398;57;1138758;-75
2024/01/23 12:07:45;;;;;;;10.87;3.23;;;;;;;5.44;100.00;100783.76;4888482;57;1139423;-73
2024/01/23 12:12:58;;;;;;;13.13;4.00;;;;;;;5.41;100.00;100769.95;4901471;58;1138791;-76
2024/01/23 12:18:04;;;;;;;15.78;3.95;;;;;;;5.28;100.00;100778.92;4933862;58;1138910;-72
2024/01/23 12:23:10;;;;;;;10.63;2.60;;;;;;;5.08;100.00;100785.17;4912127;58;1138786;-72
2024/01/23 12:28:20;;;;;;;14.93;2.90;;;;;;;4.97;100.00;100799.30;4922139;57;1138588;-75
2024/01/23 12:33:27;;;;;;;9.70;2.30;;;;;;;4.89;100.00;100791.80;4955380;57;1138742;-72
2024/01/23 12:38:33;;;;;;;8.13;2.83;;;;;;;4.85;100.00;100798.59;4940626;57;1136662;-74
2024/01/23 12:43:39;;;;;;;15.97;4.70;;;;;;;4.85;100.00;100802.53;4921532;58;1137430;-75
2024/01/23 12:48:45;;;;;;;11.37;3.07;;;;;;;4.82;100.00;100806.14;4865402;58;1138605;-75
2024/01/23 12:53:50;;;;;;;22.43;6.40;;;;;;;4.83;100.00;100804.38;4829367;58;1138673;-77
2024/01/23 12:58:56;;;;;;;14.83;3.17;;;;;;;4.80;100.00;100797.97;4807832;58;1139275;-76
2024/01/23 13:04:02;;;;;;;22.17;3.60;;;;;;;4.82;100.00;100800.05;4947183;57;1139089;-75
2024/01/23 13:09:08;;;;;;;16.00;3.12;;;;;;;4.87;100.00;100817.26;4878792;57;1138901;-76
2024/01/23 13:14:14;;;;;;;12.95;2.47;;;;;;;4.93;100.00;100812.16;4888482;57;1138712;-75
2024/01/23 13:19:19;;;;;;;8.93;1.82;;;;;;;5.00;100.00;100814.88;4928864;57;1138880;-75
2024/01/23 13:24:25;;;;;;;13.87;4.70;;;;;;;5.04;100.00;100823.44;4908280;57;1136921;-75
2024/01/23 13:29:31;;;;;;;20.47;3.37;;;;;;;5.07;100.00;100823.26;4912934;58;1138794;-75
2024/01/23 13:34:37;;;;;;;18.03;3.30;;;;;;;5.10;100.00;100829.20;4918706;57;1138446;-75
2024/01/23 13:39:43;;;;;;;6.50;2.23;;;;;;;5.14;100.00;100822.89;4919348;57;1138593;-76
2024/01/23 13:44:48;;;;;;;14.50;3.27;;;;;;;5.19;100.00;100833.16;4909446;58;1136673;-76
2024/01/23 13:49:54;;;;;;;12.30;2.67;;;;;;;5.27;100.00;100826.59;4803815;59;1138701;-76
2024/01/23 13:55:00;;;;;;;19.90;3.20;;;;;;;5.36;100.00;100831.81;4818867;57;1138870;-74
2024/01/23 14:00:07;;;;;;;14.53;2.52;;;;;;;5.41;100.00;100833.75;4797728;58;1138745;-75
2024/01/23 14:05:16;;;;;;;10.77;2.40;;;;;;;5.50;100.00;100839.82;4816759;58;1138548;-75
2024/01/23 14:10:22;;;;;;;10.87;4.00;;;;;;;5.55;100.00;100852.71;4735776;59;1138642;-74
2024/01/23 14:15:27;;;;;;;10.77;2.73;;;;;;;5.60;100.00;100857.27;4910048;57;1138913;-74
2024/01/23 14:20:33;;;;;;;10.93;2.23;;;;;;;5.61;100.00;100893.92;4793051;58;1138794;-74
2024/01/23 14:25:38;;;;;;;11.53;2.37;;;;;;;5.57;100.00;100883.19;4766185;59;1138998;-74
2024/01/23 14:30:49;;;;;;;8.60;1.57;;;;;;;5.57;100.00;100886.28;4923787;58;1138567;-76
2024/01/23 14:35:51;;;;;;;15.07;2.83;;;;;;;5.54;100.00;100901.71;4930950;57;1136873;-76
2024/01/23 14:40:57;;;;;;;9.00;3.33;;;;;;;5.53;100.00;100929.33;4934814;57;1169773;-77
2024/01/23 14:46:03;;;;;;;8.73;1.87;;;;;;;5.51;100.00;100933.80;4898979;58;1136629;-74
2024/01/23 14:51:09;;;;;;;11.00;2.92;;;;;;;5.44;100.00;100952.09;4897443;57;1136715;-75
2024/01/23 14:56:15;;;;;;;22.57;5.47;;;;;;;5.40;100.00;100975.00;4984443;57;1139014;-75
2024/01/23 15:01:21;;;;;;;16.53;2.77;;;;;;;5.39;100.00;100994.74;5008332;57;1138406;-76
2024/01/23 15:06:26;;;;;;;36.87;8.47;;;;;;;5.35;100.00;101003.22;4985285;57;1139082;-75
2024/01/23 15:11:32;;;;;;;17.60;2.47;;;;;;;5.29;100.00;101018.80;4945911;56;1139343;-76
2024/01/23 15:16:38;;;;;;;18.90;4.93;;;;;;;5.24;100.00;101016.84;4918657;58;1139383;-76
2024/01/23 15:21:46;;;;;;;16.43;5.03;;;;;;;5.17;100.00;101019.85;4896550;58;1139142;-77
2024/01/23 15:26:51;;;;;;;31.82;6.70;;;;;;;5.10;100.00;101040.25;4947101;58;1138838;-76
2024/01/23 15:31:57;;;;;;;10.37;3.13;;;;;;;5.04;100.00;101045.77;4949930;57;1138975;-77
2024/01/23 15:37:03;;;;;;;16.17;4.33;;;;;;;5.00;100.00;101047.31;4813613;58;1138602;-77
2024/01/23 15:42:09;;;;;;;19.20;4.15;;;;;;;4.96;100.00;101070.19;4934241;58;1139714;-75
2024/01/23 15:47:14;;;;;;;23.83;5.62;;;;;;;4.95;100.00;101071.10;4951541;58;1138691;-75
2024/01/23 15:52:20;;;;;;;131.83;29.47;;;;;;;4.94;100.00;101075.95;4982334;57;1138599;-75
2024/01/23 15:57:30;;;;;;;40.00;8.50;;;;;;;4.93;100.00;101082.11;4991819;56;1142799;-78
2024/01/23 16:02:36;;;;;;;36.50;7.23;;;;;;;4.93;100.00;101072.94;4987713;57;1138547;-75
2024/01/23 16:07:42;;;;;;;24.63;4.63;;;;;;;4.91;100.00;101087.87;4877906;59;1138505;-79
2024/01/23 16:12:47;;;;;;;17.00;2.70;;;;;;;4.89;100.00;101097.58;4886709;58;1138656;-75
2024/01/23 16:17:53;;;;;;;22.33;5.47;;;;;;;4.88;100.00;101095.91;4932046;58;1138527;-77
2024/01/23 16:22:59;;;;;;;20.97;5.80;;;;;;;4.85;100.00;101090.34;4917961;57;1139719;-78
2024/01/23 16:28:05;;;;;;;12.33;3.65;;;;;;;4.84;100.00;101102.20;4930494;57;1143661;-78
2024/01/23 16:33:10;;;;;;;15.93;4.20;;;;;;;4.82;100.00;101111.89;4863265;58;1138661;-76
2024/01/23 16:38:16;;;;;;;57.27;9.98;;;;;;;4.84;100.00;101119.23;4724279;59;1139204;-76
2024/01/23 16:43:22;;;;;;;34.87;7.07;;;;;;;4.85;100.00;101131.42;4951027;58;1138485;-77
2024/01/23 16:48:27;;;;;;;47.83;10.63;;;;;;;4.86;100.00;101124.80;4958333;58;1138533;-78
2024/01/23 16:53:33;;;;;;;49.47;10.13;;;;;;;4.87;100.00;101142.23;4929201;58;1140747;-78
2024/01/23 16:58:38;;;;;;;32.33;7.20;;;;;;;4.85;100.00;101136.20;4891490;57;1140532;-77
2024/01/23 17:03:44;;;;;;;33.80;9.03;;;;;;;4.86;100.00;101145.77;4895556;58;1138768;-76
2024/01/23 17:08:50;;;;;;;38.27;9.83;;;;;;;4.85;100.00;101149.30;4935185;58;1138717;-76
2024/01/23 17:13:55;;;;;;;25.35;5.03;;;;;;;4.85;100.00;101170.73;4953545;58;1142842;-76
2024/01/23 17:19:01;;;;;;;55.37;13.20;;;;;;;4.87;100.00;101176.76;4971250;58;1138902;-77
2024/01/23 17:24:07;;;;;;;28.38;7.45;;;;;;;4.89;100.00;101186.23;4958013;57;1141250;-78
2024/01/23 17:29:13;;;;;;;47.50;10.48;;;;;;;4.91;100.00;101191.41;4944649;58;1138642;-78
2024/01/23 17:34:18;;;;;;;58.85;13.18;;;;;;;4.94;100.00;101203.08;4864000;59;1141176;-78
2024/01/23 17:39:24;;;;;;;31.47;7.00;;;;;;;4.98;100.00;101192.86;4896612;57;1140668;-78
2024/01/23 17:44:30;;;;;;;20.37;4.23;;;;;;;4.98;100.00;101197.25;4924707;57;1139853;-76
2024/01/23 17:49:35;;;;;;;24.63;5.23;;;;;;;5.00;100.00;101211.14;4947928;57;1138866;-77
2024/01/23 17:54:41;;;;;;;24.03;3.73;;;;;;;5.01;100.00;101205.84;4949958;57;1138689;-77
2024/01/23 17:59:46;;;;;;;21.83;4.43;;;;;;;4.98;100.00;101207.73;4952160;57;1138914;-77
2024/01/23 18:04:52;;;;;;;23.63;4.17;;;;;;;4.97;100.00;101219.14;4951805;57;1138875;-77
2024/01/23 18:10:01;;;;;;;22.67;5.80;;;;;;;4.95;100.00;101222.67;4970865;57;1138552;-79
2024/01/23 18:15:08;;;;;;;19.67;4.78;;;;;;;4.93;100.00;101231.52;4952527;57;1146217;-76
2024/01/23 18:20:20;;;;;;;22.70;4.50;;;;;;;4.88;100.00;101230.42;4936610;57;1138940;-76
2024/01/23 18:25:21;;;;;;;32.60;5.60;;;;;;;4.86;100.00;101243.20;4939002;58;1138509;-76
2024/01/23 18:30:27;;;;;;;27.83;5.40;;;;;;;4.81;100.00;101244.69;4844652;58;1138489;-78
2024/01/23 18:35:32;;;;;;;26.27;6.37;;;;;;;4.76;100.00;101254.50;4846176;59;1138767;-78
2024/01/23 18:40:38;;;;;;;27.83;5.37;;;;;;;4.73;100.00;101256.42;4878325;58;1139017;-78
2024/01/23 18:45:44;;;;;;;31.63;6.03;;;;;;;4.67;100.00;101250.11;4923092;58;1138888;-78
2024/01/23 18:50:50;;;;;;;38.87;10.80;;;;;;;4.59;100.00;101251.27;4929316;57;1138774;-78
2024/01/23 18:55:55;;;;;;;35.97;7.90;;;;;;;4.55;100.00;101264.58;4953064;57;1141352;-76
2024/01/23 19:01:01;;;;;;;23.87;6.43;;;;;;;4.49;100.00;101265.67;4971683;57;1138786;-79
2024/01/23 19:06:07;;;;;;;27.47;5.50;;;;;;;4.45;100.00;101268.00;4946091;57;1139088;-76
2024/01/23 19:11:12;;;;;;;32.03;6.50;;;;;;;4.46;100.00;101273.64;4925721;58;1138648;-79
2024/01/23 19:16:18;;;;;;;27.67;6.13;;;;;;;4.47;100.00;101284.97;4814418;58;1139000;-79
2024/01/23 19:21:24;;;;;;;25.33;7.10;;;;;;;4.42;100.00;101282.56;4922758;58;1138911;-79
2024/01/23 19:26:30;;;;;;;21.27;6.23;;;;;;;4.38;100.00;101286.20;4875657;58;1138806;-78
2024/01/23 19:31:35;;;;;;;23.87;5.70;;;;;;;4.35;100.00;101286.78;4893201;58;1138839;-77
2024/01/23 19:36:41;;;;;;;33.10;6.85;;;;;;;4.32;100.00;101284.27;4887101;58;1138757;-76
2024/01/23 19:41:47;;;;;;;27.83;6.83;;;;;;;4.28;100.00;101288.77;4897680;57;1138899;-78
2024/01/23 19:46:52;;;;;;;21.40;5.20;;;;;;;4.28;100.00;101288.77;4913500;57;1138916;-76
2024/01/23 19:51:58;;;;;;;20.20;6.70;;;;;;;4.26;100.00;101289.77;4917304;57;1139249;-79
2024/01/23 19:57:04;;;;;;;24.13;7.23;;;;;;;4.24;100.00;101285.91;4882235;58;1138801;-78
2024/01/23 20:02:10;;;;;;;28.20;8.48;;;;;;;4.23;100.00;101288.12;4901300;57;1138948;-76
2024/01/23 20:07:16;;;;;;;25.93;7.83;;;;;;;4.19;100.00;101299.16;4935304;57;1139699;-77
2024/01/23 20:12:21;;;;;;;20.30;6.35;;;;;;;4.17;100.00;101306.67;4940068;57;1139339;-78
2024/01/23 20:17:31;;;;;;;23.32;5.30;;;;;;;4.16;100.00;101289.25;4918830;58;1138773;-77
2024/01/23 20:22:39;;;;;;;23.53;5.27;;;;;;;4.16;100.00;101290.11;4766838;59;1138610;-77
2024/01/23 20:27:45;;;;;;;28.70;6.77;;;;;;;4.17;100.00;101291.81;4756671;59;1138666;-79
2024/01/23 20:32:50;;;;;;;20.30;5.60;;;;;;;4.19;100.00;101297.00;4766192;59;1138728;-78
2024/01/23 20:37:56;;;;;;;23.43;5.07;;;;;;;4.19;100.00;101291.77;4723532;59;1139251;-77
2024/01/23 20:43:03;;;;;;;26.37;5.97;;;;;;;4.18;100.00;101290.91;4956952;58;1138881;-78
2024/01/23 20:48:09;;;;;;;23.20;5.17;;;;;;;4.20;100.00;101287.78;4875455;58;1138990;-75
2024/01/23 20:53:16;;;;;;;34.92;8.55;;;;;;;4.21;100.00;101277.70;4959202;57;1139528;-75
2024/01/23 20:58:21;;;;;;;41.83;7.85;;;;;;;4.20;100.00;101262.91;5011049;56;1139000;-75
2024/01/23 21:03:27;;;;;;;34.50;8.37;;;;;;;4.17;100.00;101255.62;4983262;57;1138798;-77
2024/01/23 21:08:32;;;;;;;19.93;6.27;;;;;;;4.16;100.00;101263.93;4917002;56;1138935;-75
2024/01/23 21:13:38;;;;;;;28.10;8.07;;;;;;;4.15;100.00;101258.75;4939910;57;1138695;-77
2024/01/23 21:18:43;;;;;;;28.83;7.97;;;;;;;4.12;100.00;101249.73;4752131;59;1138688;-78
2024/01/23 21:23:49;;;;;;;20.60;5.30;;;;;;;4.10;100.00;101235.84;4871091;58;1138905;-77
2024/01/23 21:28:54;;;;;;;27.40;4.97;;;;;;;4.06;100.00;101232.49;4871432;59;1139296;-79
2024/01/23 21:34:00;;;;;;;21.87;5.10;;;;;;;4.02;100.00;101233.97;4890078;59;1138613;-79
2024/01/23 21:39:06;;;;;;;26.93;5.53;;;;;;;3.99;100.00;101231.02;4871285;58;1138984;-76
2024/01/23 21:44:12;;;;;;;24.77;6.55;;;;;;;3.98;100.00;101214.06;4933890;58;1138828;-79
2024/01/23 21:49:20;;;;;;;19.20;4.95;;;;;;;3.98;100.00;101204.90;4902256;59;1138784;-79
2024/01/23 21:54:25;;;;;;;21.30;5.17;;;;;;;3.96;100.00;101194.97;4932673;57;1138536;-79
2024/01/23 21:59:31;;;;;;;24.65;5.65;;;;;;;4.00;100.00;101177.76;4936679;57;1138727;-78
2024/01/23 22:04:37;;;;;;;27.63;6.00;;;;;;;4.00;100.00;101185.61;4917955;58;1138675;-79
2024/01/23 22:09:42;;;;;;;18.33;5.73;;;;;;;4.01;100.00;101186.47;4949306;58;1138661;-78
2024/01/23 22:14:48;;;;;;;30.47;8.00;;;;;;;4.02;100.00;101181.17;4875324;57;1138484;-78
2024/01/23 22:19:53;;;;;;;29.73;6.47;;;;;;;4.01;100.00;101177.30;4867887;59;1138830;-78
2024/01/23 22:24:59;;;;;;;35.33;7.60;;;;;;;4.04;100.00;101158.87;4907968;58;1138614;-78
2024/01/23 22:30:05;;;;;;;33.83;7.00;;;;;;;4.05;100.00;101135.70;4954165;58;1139062;-78
2024/01/23 22:35:11;;;;;;;23.67;7.53;;;;;;;4.06;100.00;101119.95;4954298;58;1138809;-78
2024/01/23 22:40:17;;;;;;;20.45;5.65;;;;;;;4.04;100.00;101095.59;4969840;58;1138576;-78
2024/01/23 22:45:22;;;;;;;59.63;13.73;;;;;;;4.03;100.00;101079.95;4946809;58;1139008;-78
2024/01/23 22:50:28;;;;;;;55.83;14.90;;;;;;;4.00;100.00;101062.61;4949077;58;1140762;-78
2024/01/23 22:55:33;;;;;;;36.50;8.67;;;;;;;3.96;100.00;101074.59;5007661;57;1140619;-79